sensor_id;sensor_type;location;lat;lon;timestamp;P1;durP1;ratioP1;P2;durP2;ratioP2
23242;SDS011;11790;49.578;11.214;2022-10-16T00:00:15;3.22;;;1.50;;
23242;SDS011;11790;49.578;11.214;2022-10-16T00:05:15;2.83;;;1.17;;
23242;SDS011;11790;49.578;11.214;2022-10-16T00:10:15;5.45;;;1.35;;
23242;SDS011;11790;49.578;11.214;2022-10-16T00:15:15;2.33;;;1.27;;
23242;SDS011;11790;49.578;11.214;2022-10-16T00:20:16;4.57;;;1.60;;
23242;SDS011;11790;49.578;11.214;2022-10-16T00:25:16;2.08;;;1.17;;
23242;SDS011;11790;49.578;11.214;2022-10-16T00:30:16;3.83;;;1.20;;
23242;SDS011;11790;49.578;11.214;2022-10-16T00:35:16;3.50;;;1.60;;
23242;SDS011;11790;49.578;11.214;2022-10-16T00:40:17;2.58;;;1.30;;
23242;SDS011;11790;49.578;11.214;2022-10-16T00:45:17;2.83;;;1.43;;
23242;SDS011;11790;49.578;11.214;2022-10-16T00:50:30;3.17;;;1.50;;
23242;SDS011;11790;49.578;11.214;2022-10-16T00:55:31;10.27;;;1.50;;
23242;SDS011;11790;49.578;11.214;2022-10-16T01:00:31;5.47;;;1.60;;
23242;SDS011;11790;49.578;11.214;2022-10-16T01:05:37;4.90;;;1.80;;
23242;SDS011;11790;49.578;11.214;2022-10-16T01:10:57;2.80;;;1.30;;
23242;SDS011;11790;49.578;11.214;2022-10-16T01:21:03;2.45;;;1.50;;
23242;SDS011;11790;49.578;11.214;2022-10-16T01:31:25;3.10;;;1.48;;
23242;SDS011;11790;49.578;11.214;2022-10-16T01:36:29;3.03;;;1.70;;
23242;SDS011;11790;49.578;11.214;2022-10-16T01:41:35;5.80;;;1.85;;
23242;SDS011;11790;49.578;11.214;2022-10-16T01:46:37;3.30;;;1.57;;
23242;SDS011;11790;49.578;11.214;2022-10-16T01:51:39;3.30;;;1.70;;
23242;SDS011;11790;49.578;11.214;2022-10-16T01:56:41;3.33;;;1.65;;
23242;SDS011;11790;49.578;11.214;2022-10-16T02:01:42;3.88;;;1.70;;
23242;SDS011;11790;49.578;11.214;2022-10-16T02:06:45;5.28;;;1.40;;
23242;SDS011;11790;49.578;11.214;2022-10-16T02:11:45;3.30;;;1.57;;
23242;SDS011;11790;49.578;11.214;2022-10-16T02:16:46;1.53;;;1.27;;
23242;SDS011;11790;49.578;11.214;2022-10-16T02:21:50;1.83;;;1.40;;
23242;SDS011;11790;49.578;11.214;2022-10-16T02:26:52;3.95;;;1.40;;
23242;SDS011;11790;49.578;11.214;2022-10-16T02:36:58;1.55;;;1.27;;
23242;SDS011;11790;49.578;11.214;2022-10-16T02:41:59;2.95;;;1.20;;
23242;SDS011;11790;49.578;11.214;2022-10-16T02:46:59;2.95;;;1.27;;
23242;SDS011;11790;49.578;11.214;2022-10-16T02:52:00;2.38;;;1.45;;
23242;SDS011;11790;49.578;11.214;2022-10-16T02:57:00;2.05;;;1.38;;
23242;SDS011;11790;49.578;11.214;2022-10-16T03:02:00;2.13;;;1.30;;
23242;SDS011;11790;49.578;11.214;2022-10-16T03:07:00;2.17;;;1.08;;
23242;SDS011;11790;49.578;11.214;2022-10-16T03:12:01;3.08;;;1.13;;
23242;SDS011;11790;49.578;11.214;2022-10-16T03:17:01;2.70;;;1.50;;
23242;SDS011;11790;49.578;11.214;2022-10-16T03:22:01;3.85;;;1.35;;
23242;SDS011;11790;49.578;11.214;2022-10-16T03:27:02;2.25;;;1.30;;
23242;SDS011;11790;49.578;11.214;2022-10-16T03:32:02;2.40;;;1.37;;
23242;SDS011;11790;49.578;11.214;2022-10-16T03:37:02;4.53;;;1.60;;
23242;SDS011;11790;49.578;11.214;2022-10-16T03:42:03;3.47;;;1.40;;
23242;SDS011;11790;49.578;11.214;2022-10-16T03:47:03;1.65;;;1.27;;
23242;SDS011;11790;49.578;11.214;2022-10-16T03:52:03;1.27;;;1.00;;
23242;SDS011;11790;49.578;11.214;2022-10-16T03:57:03;2.40;;;1.38;;
23242;SDS011;11790;49.578;11.214;2022-10-16T04:02:03;3.45;;;1.17;;
23242;SDS011;11790;49.578;11.214;2022-10-16T04:07:04;2.70;;;1.10;;
23242;SDS011;11790;49.578;11.214;2022-10-16T04:12:04;3.38;;;1.20;;
23242;SDS011;11790;49.578;11.214;2022-10-16T04:17:04;1.90;;;1.33;;
23242;SDS011;11790;49.578;11.214;2022-10-16T04:22:05;2.25;;;1.40;;
23242;SDS011;11790;49.578;11.214;2022-10-16T04:27:05;3.55;;;1.63;;
23242;SDS011;11790;49.578;11.214;2022-10-16T04:32:07;3.38;;;1.50;;
23242;SDS011;11790;49.578;11.214;2022-10-16T04:37:07;4.68;;;1.50;;
23242;SDS011;11790;49.578;11.214;2022-10-16T04:42:07;3.13;;;1.50;;
23242;SDS011;11790;49.578;11.214;2022-10-16T04:47:08;2.22;;;1.45;;
23242;SDS011;11790;49.578;11.214;2022-10-16T04:52:08;4.73;;;1.67;;
23242;SDS011;11790;49.578;11.214;2022-10-16T04:57:09;3.50;;;1.60;;
23242;SDS011;11790;49.578;11.214;2022-10-16T05:02:10;7.03;;;1.45;;
23242;SDS011;11790;49.578;11.214;2022-10-16T05:07:10;6.13;;;1.63;;
23242;SDS011;11790;49.578;11.214;2022-10-16T05:12:10;6.22;;;1.73;;
23242;SDS011;11790;49.578;11.214;2022-10-16T05:17:10;3.38;;;1.60;;
23242;SDS011;11790;49.578;11.214;2022-10-16T05:22:10;4.22;;;1.70;;
23242;SDS011;11790;49.578;11.214;2022-10-16T05:27:11;6.82;;;1.95;;
23242;SDS011;11790;49.578;11.214;2022-10-16T05:32:18;2.72;;;1.67;;
23242;SDS011;11790;49.578;11.214;2022-10-16T05:37:19;3.63;;;1.50;;
23242;SDS011;11790;49.578;11.214;2022-10-16T05:42:19;4.40;;;1.67;;
23242;SDS011;11790;49.578;11.214;2022-10-16T05:47:19;3.27;;;1.60;;
23242;SDS011;11790;49.578;11.214;2022-10-16T05:52:20;2.13;;;1.58;;
23242;SDS011;11790;49.578;11.214;2022-10-16T05:57:21;3.47;;;2.50;;
23242;SDS011;11790;49.578;11.214;2022-10-16T06:02:21;3.03;;;1.73;;
23242;SDS011;11790;49.578;11.214;2022-10-16T06:07:22;4.18;;;1.67;;
23242;SDS011;11790;49.578;11.214;2022-10-16T06:12:22;5.75;;;1.90;;
23242;SDS011;11790;49.578;11.214;2022-10-16T06:17:22;3.05;;;1.67;;
23242;SDS011;11790;49.578;11.214;2022-10-16T06:22:23;6.10;;;2.38;;
23242;SDS011;11790;49.578;11.214;2022-10-16T06:27:23;4.55;;;2.50;;
23242;SDS011;11790;49.578;11.214;2022-10-16T06:32:23;3.88;;;2.15;;
23242;SDS011;11790;49.578;11.214;2022-10-16T06:37:23;4.22;;;2.25;;
23242;SDS011;11790;49.578;11.214;2022-10-16T06:42:24;3.50;;;2.47;;
23242;SDS011;11790;49.578;11.214;2022-10-16T06:47:25;4.85;;;2.50;;
23242;SDS011;11790;49.578;11.214;2022-10-16T06:52:27;6.38;;;3.60;;
23242;SDS011;11790;49.578;11.214;2022-10-16T06:57:27;3.30;;;2.45;;
23242;SDS011;11790;49.578;11.214;2022-10-16T07:02:27;5.63;;;2.10;;
23242;SDS011;11790;49.578;11.214;2022-10-16T07:07:28;3.13;;;2.03;;
23242;SDS011;11790;49.578;11.214;2022-10-16T07:12:28;2.97;;;1.80;;
23242;SDS011;11790;49.578;11.214;2022-10-16T07:17:28;1.92;;;1.48;;
23242;SDS011;11790;49.578;11.214;2022-10-16T07:22:28;4.53;;;2.15;;
23242;SDS011;11790;49.578;11.214;2022-10-16T07:27:29;3.07;;;1.90;;
23242;SDS011;11790;49.578;11.214;2022-10-16T07:32:29;2.75;;;1.70;;
23242;SDS011;11790;49.578;11.214;2022-10-16T07:37:29;2.92;;;1.90;;
23242;SDS011;11790;49.578;11.214;2022-10-16T07:42:29;4.53;;;2.10;;
23242;SDS011;11790;49.578;11.214;2022-10-16T07:47:30;4.68;;;2.08;;
23242;SDS011;11790;49.578;11.214;2022-10-16T07:52:30;4.15;;;2.50;;
23242;SDS011;11790;49.578;11.214;2022-10-16T07:57:30;4.40;;;2.20;;
23242;SDS011;11790;49.578;11.214;2022-10-16T08:02:31;2.90;;;1.90;;
23242;SDS011;11790;49.578;11.214;2022-10-16T08:07:31;9.15;;;2.00;;
23242;SDS011;11790;49.578;11.214;2022-10-16T08:12:31;4.40;;;2.03;;
23242;SDS011;11790;49.578;11.214;2022-10-16T08:17:31;3.17;;;1.98;;
23242;SDS011;11790;49.578;11.214;2022-10-16T08:22:31;3.67;;;2.30;;
23242;SDS011;11790;49.578;11.214;2022-10-16T08:27:32;3.85;;;2.53;;
23242;SDS011;11790;49.578;11.214;2022-10-16T08:32:32;4.40;;;2.40;;
23242;SDS011;11790;49.578;11.214;2022-10-16T08:37:33;3.20;;;1.80;;
23242;SDS011;11790;49.578;11.214;2022-10-16T08:42:46;2.83;;;1.75;;
23242;SDS011;11790;49.578;11.214;2022-10-16T08:48:00;3.75;;;1.50;;
23242;SDS011;11790;49.578;11.214;2022-10-16T08:53:04;4.68;;;1.80;;
23242;SDS011;11790;49.578;11.214;2022-10-16T08:58:16;2.33;;;1.40;;
23242;SDS011;11790;49.578;11.214;2022-10-16T09:18:54;5.00;;;1.40;;
23242;SDS011;11790;49.578;11.214;2022-10-16T09:23:59;2.13;;;1.65;;
23242;SDS011;11790;49.578;11.214;2022-10-16T09:29:00;3.78;;;1.40;;
23242;SDS011;11790;49.578;11.214;2022-10-16T09:34:01;4.00;;;1.20;;
23242;SDS011;11790;49.578;11.214;2022-10-16T09:39:07;3.50;;;1.30;;
23242;SDS011;11790;49.578;11.214;2022-10-16T09:44:27;2.97;;;1.25;;
23242;SDS011;11790;49.578;11.214;2022-10-16T09:49:28;3.17;;;1.23;;
23242;SDS011;11790;49.578;11.214;2022-10-16T09:54:28;1.88;;;1.25;;
23242;SDS011;11790;49.578;11.214;2022-10-16T09:59:28;2.67;;;1.23;;
23242;SDS011;11790;49.578;11.214;2022-10-16T10:04:41;1.98;;;1.33;;
23242;SDS011;11790;49.578;11.214;2022-10-16T10:09:42;3.67;;;1.20;;
23242;SDS011;11790;49.578;11.214;2022-10-16T10:14:47;3.22;;;1.20;;
23242;SDS011;11790;49.578;11.214;2022-10-16T10:19:49;2.30;;;1.23;;
23242;SDS011;11790;49.578;11.214;2022-10-16T10:24:57;4.03;;;1.30;;
23242;SDS011;11790;49.578;11.214;2022-10-16T10:30:01;2.95;;;1.20;;
23242;SDS011;11790;49.578;11.214;2022-10-16T10:40:15;2.28;;;1.20;;
23242;SDS011;11790;49.578;11.214;2022-10-16T10:45:57;1.80;;;1.20;;
23242;SDS011;11790;49.578;11.214;2022-10-16T10:50:57;1.63;;;1.13;;
23242;SDS011;11790;49.578;11.214;2022-10-16T11:01:17;6.15;;;1.48;;
23242;SDS011;11790;49.578;11.214;2022-10-16T11:06:21;3.75;;;1.50;;
23242;SDS011;11790;49.578;11.214;2022-10-16T11:11:30;1.60;;;1.10;;
23242;SDS011;11790;49.578;11.214;2022-10-16T11:16:37;6.93;;;1.40;;
23242;SDS011;11790;49.578;11.214;2022-10-16T11:21:49;1.80;;;1.00;;
23242;SDS011;11790;49.578;11.214;2022-10-16T11:26:52;4.65;;;1.30;;
23242;SDS011;11790;49.578;11.214;2022-10-16T11:31:55;2.55;;;1.30;;
23242;SDS011;11790;49.578;11.214;2022-10-16T11:36:58;3.95;;;1.60;;
23242;SDS011;11790;49.578;11.214;2022-10-16T11:42:19;1.40;;;1.20;;
23242;SDS011;11790;49.578;11.214;2022-10-16T11:47:31;3.30;;;1.00;;
23242;SDS011;11790;49.578;11.214;2022-10-16T11:52:40;1.83;;;1.00;;
23242;SDS011;11790;49.578;11.214;2022-10-16T11:57:43;2.72;;;1.17;;
23242;SDS011;11790;49.578;11.214;2022-10-16T12:03:45;2.95;;;1.00;;
23242;SDS011;11790;49.578;11.214;2022-10-16T12:08:14;5.35;;;1.10;;
23242;SDS011;11790;49.578;11.214;2022-10-16T12:13:35;1.77;;;1.02;;
23242;SDS011;11790;49.578;11.214;2022-10-16T12:18:36;1.30;;;0.98;;
23242;SDS011;11790;49.578;11.214;2022-10-16T12:23:36;3.85;;;1.10;;
23242;SDS011;11790;49.578;11.214;2022-10-16T12:28:37;2.35;;;0.80;;
23242;SDS011;11790;49.578;11.214;2022-10-16T12:33:39;1.35;;;0.95;;
23242;SDS011;11790;49.578;11.214;2022-10-16T12:38:48;1.80;;;0.90;;
23242;SDS011;11790;49.578;11.214;2022-10-16T12:43:49;1.17;;;1.00;;
23242;SDS011;11790;49.578;11.214;2022-10-16T12:48:49;2.97;;;0.90;;
23242;SDS011;11790;49.578;11.214;2022-10-16T12:54:00;1.77;;;1.10;;
23242;SDS011;11790;49.578;11.214;2022-10-16T13:04:14;3.55;;;0.85;;
23242;SDS011;11790;49.578;11.214;2022-10-16T13:14:33;2.33;;;0.90;;
23242;SDS011;11790;49.578;11.214;2022-10-16T13:19:49;1.25;;;1.00;;
23242;SDS011;11790;49.578;11.214;2022-10-16T13:30:20;1.60;;;1.10;;
23242;SDS011;11790;49.578;11.214;2022-10-16T13:35:22;1.50;;;0.98;;
23242;SDS011;11790;49.578;11.214;2022-10-16T13:40:23;4.13;;;1.23;;
23242;SDS011;11790;49.578;11.214;2022-10-16T13:45:24;1.38;;;1.17;;
23242;SDS011;11790;49.578;11.214;2022-10-16T13:50:28;1.75;;;1.27;;
23242;SDS011;11790;49.578;11.214;2022-10-16T13:55:28;1.95;;;1.15;;
23242;SDS011;11790;49.578;11.214;2022-10-16T14:00:28;1.20;;;0.90;;
23242;SDS011;11790;49.578;11.214;2022-10-16T14:05:32;2.45;;;1.15;;
23242;SDS011;11790;49.578;11.214;2022-10-16T14:10:32;1.73;;;1.10;;
23242;SDS011;11790;49.578;11.214;2022-10-16T14:15:34;1.17;;;0.95;;
23242;SDS011;11790;49.578;11.214;2022-10-16T14:20:34;6.30;;;1.00;;
23242;SDS011;11790;49.578;11.214;2022-10-16T14:25:35;1.88;;;0.95;;
23242;SDS011;11790;49.578;11.214;2022-10-16T14:30:35;1.83;;;0.83;;
23242;SDS011;11790;49.578;11.214;2022-10-16T14:35:37;1.75;;;1.33;;
23242;SDS011;11790;49.578;11.214;2022-10-16T14:40:38;4.53;;;0.93;;
23242;SDS011;11790;49.578;11.214;2022-10-16T14:45:38;1.67;;;0.95;;
23242;SDS011;11790;49.578;11.214;2022-10-16T14:50:40;2.80;;;1.10;;
23242;SDS011;11790;49.578;11.214;2022-10-16T14:55:41;1.93;;;0.90;;
23242;SDS011;11790;49.578;11.214;2022-10-16T15:00:41;3.15;;;1.10;;
23242;SDS011;11790;49.578;11.214;2022-10-16T15:05:41;3.65;;;1.27;;
23242;SDS011;11790;49.578;11.214;2022-10-16T15:10:42;2.08;;;1.10;;
23242;SDS011;11790;49.578;11.214;2022-10-16T15:15:46;2.05;;;1.20;;
23242;SDS011;11790;49.578;11.214;2022-10-16T15:20:48;3.28;;;1.40;;
23242;SDS011;11790;49.578;11.214;2022-10-16T15:25:49;9.90;;;1.92;;
23242;SDS011;11790;49.578;11.214;2022-10-16T15:30:50;5.22;;;1.70;;
23242;SDS011;11790;49.578;11.214;2022-10-16T15:35:51;6.28;;;1.55;;
23242;SDS011;11790;49.578;11.214;2022-10-16T15:40:52;7.40;;;1.73;;
23242;SDS011;11790;49.578;11.214;2022-10-16T15:46:02;8.00;;;2.00;;
23242;SDS011;11790;49.578;11.214;2022-10-16T15:51:04;4.85;;;1.80;;
23242;SDS011;11790;49.578;11.214;2022-10-16T15:56:05;7.18;;;1.50;;
23242;SDS011;11790;49.578;11.214;2022-10-16T16:01:06;7.57;;;1.83;;
23242;SDS011;11790;49.578;11.214;2022-10-16T16:06:07;7.22;;;2.10;;
23242;SDS011;11790;49.578;11.214;2022-10-16T16:11:08;6.13;;;2.17;;
23242;SDS011;11790;49.578;11.214;2022-10-16T16:16:13;4.28;;;2.30;;
23242;SDS011;11790;49.578;11.214;2022-10-16T16:21:14;3.50;;;2.13;;
23242;SDS011;11790;49.578;11.214;2022-10-16T16:26:24;3.67;;;2.33;;
23242;SDS011;11790;49.578;11.214;2022-10-16T16:31:27;6.25;;;2.30;;
23242;SDS011;11790;49.578;11.214;2022-10-16T16:36:28;6.38;;;3.33;;
23242;SDS011;11790;49.578;11.214;2022-10-16T16:41:29;5.35;;;3.15;;
23242;SDS011;11790;49.578;11.214;2022-10-16T16:59:31;6.32;;;4.40;;
23242;SDS011;11790;49.578;11.214;2022-10-16T17:04:32;9.60;;;4.07;;
23242;SDS011;11790;49.578;11.214;2022-10-16T17:09:32;9.63;;;3.78;;
23242;SDS011;11790;49.578;11.214;2022-10-16T17:14:33;7.43;;;4.13;;
23242;SDS011;11790;49.578;11.214;2022-10-16T17:19:33;6.22;;;3.08;;
23242;SDS011;11790;49.578;11.214;2022-10-16T17:24:34;12.05;;;3.58;;
23242;SDS011;11790;49.578;11.214;2022-10-16T17:29:34;8.82;;;3.55;;
23242;SDS011;11790;49.578;11.214;2022-10-16T17:34:37;11.07;;;3.92;;
23242;SDS011;11790;49.578;11.214;2022-10-16T17:39:37;6.75;;;3.30;;
23242;SDS011;11790;49.578;11.214;2022-10-16T17:44:39;6.50;;;4.10;;
23242;SDS011;11790;49.578;11.214;2022-10-16T17:49:39;6.00;;;3.85;;
23242;SDS011;11790;49.578;11.214;2022-10-16T17:54:39;6.88;;;3.83;;
23242;SDS011;11790;49.578;11.214;2022-10-16T17:59:40;10.05;;;3.72;;
23242;SDS011;11790;49.578;11.214;2022-10-16T18:04:48;6.53;;;3.80;;
23242;SDS011;11790;49.578;11.214;2022-10-16T18:09:51;7.18;;;3.67;;
23242;SDS011;11790;49.578;11.214;2022-10-16T18:14:51;5.97;;;3.00;;
23242;SDS011;11790;49.578;11.214;2022-10-16T18:19:57;5.47;;;3.50;;
23242;SDS011;11790;49.578;11.214;2022-10-16T18:24:57;11.02;;;3.15;;
23242;SDS011;11790;49.578;11.214;2022-10-16T18:29:58;8.37;;;4.03;;
23242;SDS011;11790;49.578;11.214;2022-10-16T18:34:59;6.55;;;3.78;;
23242;SDS011;11790;49.578;11.214;2022-10-16T18:39:59;11.60;;;4.05;;
23242;SDS011;11790;49.578;11.214;2022-10-16T18:44:59;13.95;;;4.25;;
23242;SDS011;11790;49.578;11.214;2022-10-16T18:50:00;7.63;;;4.00;;
23242;SDS011;11790;49.578;11.214;2022-10-16T18:55:00;7.28;;;3.40;;
23242;SDS011;11790;49.578;11.214;2022-10-16T19:00:00;11.57;;;4.07;;
23242;SDS011;11790;49.578;11.214;2022-10-16T19:05:00;10.30;;;5.17;;
23242;SDS011;11790;49.578;11.214;2022-10-16T19:10:01;7.80;;;4.00;;
23242;SDS011;11790;49.578;11.214;2022-10-16T19:15:01;6.32;;;3.80;;
23242;SDS011;11790;49.578;11.214;2022-10-16T19:20:02;7.72;;;3.90;;
23242;SDS011;11790;49.578;11.214;2022-10-16T19:25:03;9.27;;;4.10;;
23242;SDS011;11790;49.578;11.214;2022-10-16T19:30:04;8.40;;;3.47;;
23242;SDS011;11790;49.578;11.214;2022-10-16T19:35:04;11.10;;;4.18;;
23242;SDS011;11790;49.578;11.214;2022-10-16T19:40:05;7.72;;;3.60;;
23242;SDS011;11790;49.578;11.214;2022-10-16T19:45:08;6.90;;;3.65;;
23242;SDS011;11790;49.578;11.214;2022-10-16T19:50:09;5.40;;;3.80;;
23242;SDS011;11790;49.578;11.214;2022-10-16T19:55:09;6.70;;;3.90;;
23242;SDS011;11790;49.578;11.214;2022-10-16T20:00:10;5.65;;;3.95;;
23242;SDS011;11790;49.578;11.214;2022-10-16T20:05:11;6.65;;;3.78;;
23242;SDS011;11790;49.578;11.214;2022-10-16T20:10:11;7.53;;;4.20;;
23242;SDS011;11790;49.578;11.214;2022-10-16T20:15:11;7.40;;;4.75;;
23242;SDS011;11790;49.578;11.214;2022-10-16T20:20:12;9.57;;;4.30;;
23242;SDS011;11790;49.578;11.214;2022-10-16T20:25:12;7.63;;;4.05;;
23242;SDS011;11790;49.578;11.214;2022-10-16T20:30:12;9.77;;;3.90;;
23242;SDS011;11790;49.578;11.214;2022-10-16T20:35:12;8.27;;;4.07;;
23242;SDS011;11790;49.578;11.214;2022-10-16T20:40:13;6.47;;;3.80;;
23242;SDS011;11790;49.578;11.214;2022-10-16T20:45:13;7.95;;;4.30;;
23242;SDS011;11790;49.578;11.214;2022-10-16T20:50:14;7.10;;;3.85;;
23242;SDS011;11790;49.578;11.214;2022-10-16T20:55:15;15.88;;;4.57;;
23242;SDS011;11790;49.578;11.214;2022-10-16T21:00:17;4.35;;;3.13;;
23242;SDS011;11790;49.578;11.214;2022-10-16T21:05:17;8.75;;;3.40;;
23242;SDS011;11790;49.578;11.214;2022-10-16T21:10:18;5.35;;;3.17;;
23242;SDS011;11790;49.578;11.214;2022-10-16T21:15:18;10.73;;;3.70;;
23242;SDS011;11790;49.578;11.214;2022-10-16T21:20:19;10.38;;;4.10;;
23242;SDS011;11790;49.578;11.214;2022-10-16T21:25:19;13.47;;;3.73;;
23242;SDS011;11790;49.578;11.214;2022-10-16T21:30:19;11.60;;;3.73;;
23242;SDS011;11790;49.578;11.214;2022-10-16T21:35:20;7.55;;;2.80;;
23242;SDS011;11790;49.578;11.214;2022-10-16T21:40:20;4.18;;;2.83;;
23242;SDS011;11790;49.578;11.214;2022-10-16T21:45:20;6.60;;;2.97;;
23242;SDS011;11790;49.578;11.214;2022-10-16T21:50:20;5.00;;;2.90;;
23242;SDS011;11790;49.578;11.214;2022-10-16T21:55:20;8.30;;;3.10;;
23242;SDS011;11790;49.578;11.214;2022-10-16T22:00:21;6.03;;;3.40;;
23242;SDS011;11790;49.578;11.214;2022-10-16T22:05:21;7.65;;;2.70;;
23242;SDS011;11790;49.578;11.214;2022-10-16T22:10:21;9.23;;;3.10;;
23242;SDS011;11790;49.578;11.214;2022-10-16T22:15:21;11.60;;;3.55;;
23242;SDS011;11790;49.578;11.214;2022-10-16T22:20:22;4.90;;;3.35;;
23242;SDS011;11790;49.578;11.214;2022-10-16T22:25:22;8.32;;;3.15;;
23242;SDS011;11790;49.578;11.214;2022-10-16T22:30:22;7.60;;;3.17;;
23242;SDS011;11790;49.578;11.214;2022-10-16T22:35:22;4.13;;;2.83;;
23242;SDS011;11790;49.578;11.214;2022-10-16T22:40:23;6.38;;;3.47;;
23242;SDS011;11790;49.578;11.214;2022-10-16T22:45:23;7.18;;;3.13;;
23242;SDS011;11790;49.578;11.214;2022-10-16T22:50:23;6.03;;;3.00;;
23242;SDS011;11790;49.578;11.214;2022-10-16T22:55:24;3.95;;;3.03;;
23242;SDS011;11790;49.578;11.214;2022-10-16T23:00:24;5.85;;;3.13;;
23242;SDS011;11790;49.578;11.214;2022-10-16T23:05:24;6.07;;;2.90;;
23242;SDS011;11790;49.578;11.214;2022-10-16T23:10:24;13.90;;;3.25;;
23242;SDS011;11790;49.578;11.214;2022-10-16T23:15:28;7.20;;;2.90;;
23242;SDS011;11790;49.578;11.214;2022-10-16T23:20:28;8.07;;;2.80;;
23242;SDS011;11790;49.578;11.214;2022-10-16T23:25:29;10.32;;;3.08;;
23242;SDS011;11790;49.578;11.214;2022-10-16T23:30:29;4.50;;;2.80;;
23242;SDS011;11790;49.578;11.214;2022-10-16T23:35:29;9.82;;;2.75;;
23242;SDS011;11790;49.578;11.214;2022-10-16T23:40:29;4.95;;;2.90;;
23242;SDS011;11790;49.578;11.214;2022-10-16T23:45:30;6.85;;;3.13;;
23242;SDS011;11790;49.578;11.214;2022-10-16T23:50:30;5.57;;;3.05;;
23242;SDS011;11790;49.578;11.214;2022-10-16T23:55:30;5.80;;;3.10;;
